Time;durP1;ratioP1;P1;durP2;ratioP2;P2;SDS_P1;SDS_P2;PMS_P1;PMS_P2;Temp;Humidity;BMP_temperature;BMP_pressure;BME280_temperature;BME280_humidity;BME280_pressure;Samples;Min_cycle;Max_cycle;Signal;HPM_P1;HPM_P2
2023/06/22 00:01:03;;;;;;;16.83;5.75;;;;;;;;;;5072658;28;20075;-78
2023/06/22 00:03:28;;;;;;;19.70;7.22;;;;;;;;;;5066688;28;20040;-79
2023/06/22 00:05:53;;;;;;;17.27;6.53;;;;;;;;;;5060937;28;20063;-80
2023/06/22 00:08:19;;;;;;;17.52;6.03;;;;;;;;;;5068539;28;20033;-79
2023/06/22 00:10:46;;;;;;;11.95;6.60;;;;;;;;;;5072022;28;20032;-79
2023/06/22 00:13:12;;;;;;;14.23;6.65;;;;;;;;;;5064076;28;20443;-79
2023/06/22 00:15:39;;;;;;;16.33;7.10;;;;;;;;;;5055820;28;20041;-79
2023/06/22 00:18:05;;;;;;;17.77;7.28;;;;;;;;;;5070142;28;20448;-79
2023/06/22 00:20:32;;;;;;;17.67;6.18;;;;;;;;;;5068631;28;20033;-79
2023/06/22 00:22:58;;;;;;;25.50;7.47;;;;;;;;;;5077030;28;20060;-79
2023/06/22 00:25:24;;;;;;;19.67;6.78;;;;;;;;;;5073692;28;20437;-79
2023/06/22 00:27:49;;;;;;;15.65;7.75;;;;;;;;;;5061031;28;20028;-79
2023/06/22 00:30:18;;;;;;;17.88;6.90;;;;;;;;;;5072715;28;20035;-79
2023/06/22 00:32:44;;;;;;;14.68;7.15;;;;;;;;;;5072957;28;20032;-78
2023/06/22 00:35:12;;;;;;;24.58;7.70;;;;;;;;;;5062594;28;20509;-79
2023/06/22 00:37:38;;;;;;;16.05;6.85;;;;;;;;;;5075451;28;20553;-79
2023/06/22 00:40:04;;;;;;;20.38;7.50;;;;;;;;;;5074059;28;20033;-78
2023/06/22 00:42:30;;;;;;;15.73;6.70;;;;;;;;;;5068138;28;20036;-79
2023/06/22 00:44:56;;;;;;;13.20;7.78;;;;;;;;;;5075587;28;20127;-79
2023/06/22 00:47:21;;;;;;;16.17;6.95;;;;;;;;;;5077182;28;20033;-79
2023/06/22 00:49:51;;;;;;;14.82;6.90;;;;;;;;;;5066196;28;20055;-79
2023/06/22 00:52:20;;;;;;;12.77;6.95;;;;;;;;;;5052553;28;20030;-79
2023/06/22 00:54:48;;;;;;;22.33;7.57;;;;;;;;;;5063677;28;20032;-79
2023/06/22 00:57:15;;;;;;;13.30;7.03;;;;;;;;;;5080290;28;20040;-79
2023/06/22 00:59:43;;;;;;;13.85;6.55;;;;;;;;;;5077980;28;20368;-79
2023/06/22 01:02:09;;;;;;;18.80;7.55;;;;;;;;;;5079724;28;20036;-79
2023/06/22 01:04:36;;;;;;;21.08;7.70;;;;;;;;;;5060821;28;20185;-79
2023/06/22 01:07:30;;;;;;;16.52;7.10;;;;;;;;;;5067130;28;20037;-79
2023/06/22 01:10:07;;;;;;;16.88;7.43;;;;;;;;;;5063611;28;20575;-79
2023/06/22 01:12:37;;;;;;;16.23;7.35;;;;;;;;;;5070983;28;20044;-79
2023/06/22 01:15:10;;;;;;;16.23;7.03;;;;;;;;;;5074281;28;20025;-78
2023/06/22 01:17:37;;;;;;;19.90;7.40;;;;;;;;;;5077916;28;20052;-79
2023/06/22 01:20:06;;;;;;;23.65;7.75;;;;;;;;;;5077508;28;20044;-79
2023/06/22 01:22:45;;;;;;;16.88;6.97;;;;;;;;;;5077519;28;20037;-79
2023/06/22 01:25:19;;;;;;;18.50;6.93;;;;;;;;;;5067276;28;20064;-79
2023/06/22 01:27:52;;;;;;;18.42;7.40;;;;;;;;;;5076442;28;20087;-79
2023/06/22 01:30:18;;;;;;;24.55;7.70;;;;;;;;;;5070405;28;20040;-79
2023/06/22 01:32:44;;;;;;;17.67;8.02;;;;;;;;;;5061208;28;20576;-79
2023/06/22 01:35:10;;;;;;;18.50;7.07;;;;;;;;;;5066827;28;20041;-79
2023/06/22 01:37:37;;;;;;;18.90;8.60;;;;;;;;;;5071999;28;20045;-79
2023/06/22 01:40:06;;;;;;;17.27;8.18;;;;;;;;;;5071666;28;20044;-79
2023/06/22 01:42:31;;;;;;;19.65;8.50;;;;;;;;;;5074518;28;20111;-79
2023/06/22 01:44:58;;;;;;;21.65;8.70;;;;;;;;;;5064002;28;20074;-79
2023/06/22 01:47:24;;;;;;;17.50;8.80;;;;;;;;;;5070794;28;20443;-79
2023/06/22 01:49:53;;;;;;;16.63;9.27;;;;;;;;;;5076174;28;20032;-78
2023/06/22 01:52:20;;;;;;;23.00;9.30;;;;;;;;;;5067574;28;20040;-79
2023/06/22 01:54:46;;;;;;;22.08;9.32;;;;;;;;;;5068134;28;20082;-79
2023/06/22 01:57:11;;;;;;;16.05;8.00;;;;;;;;;;5078680;28;20107;-79
2023/06/22 02:00:00;;;;;;;25.38;8.50;;;;;;;;;;5066347;28;20428;-78
2023/06/22 02:02:29;;;;;;;23.38;7.90;;;;;;;;;;5067227;28;20140;-78
2023/06/22 02:04:59;;;;;;;16.15;7.40;;;;;;;;;;5057221;28;20035;-78
2023/06/22 02:07:32;;;;;;;25.40;7.90;;;;;;;;;;5071978;28;20058;-78
2023/06/22 02:09:58;;;;;;;16.50;8.10;;;;;;;;;;5072474;28;20068;-78
2023/06/22 02:12:27;;;;;;;15.85;7.45;;;;;;;;;;5074004;28;20035;-78
2023/06/22 02:14:53;;;;;;;24.27;7.85;;;;;;;;;;5058947;28;20016;-78
2023/06/22 02:17:19;;;;;;;17.60;8.13;;;;;;;;;;5074747;28;20525;-78
2023/06/22 02:19:44;;;;;;;14.90;7.28;;;;;;;;;;5059044;28;20029;-78
2023/06/22 02:22:10;;;;;;;18.83;7.78;;;;;;;;;;5060305;28;20033;-78
2023/06/22 02:24:35;;;;;;;18.38;8.05;;;;;;;;;;5070780;28;20032;-78
2023/06/22 02:27:02;;;;;;;16.33;6.90;;;;;;;;;;5060984;28;20025;-77
2023/06/22 02:29:28;;;;;;;15.38;8.35;;;;;;;;;;5064098;28;20083;-78
2023/06/22 02:31:54;;;;;;;18.90;7.55;;;;;;;;;;5058220;28;20025;-78
2023/06/22 02:34:19;;;;;;;15.05;7.32;;;;;;;;;;5074324;28;20036;-77
2023/06/22 02:36:50;;;;;;;12.05;6.95;;;;;;;;;;5063806;28;20045;-78
2023/06/22 02:39:18;;;;;;;22.15;8.07;;;;;;;;;;5069516;28;20084;-78
2023/06/22 02:41:44;;;;;;;13.65;7.80;;;;;;;;;;5057224;28;20024;-78
2023/06/22 02:44:09;;;;;;;17.85;7.28;;;;;;;;;;5068509;28;20043;-78
2023/06/22 02:46:35;;;;;;;24.52;8.48;;;;;;;;;;5066377;28;20037;-77
2023/06/22 02:49:01;;;;;;;21.00;9.05;;;;;;;;;;5056646;28;20029;-78
2023/06/22 02:51:26;;;;;;;19.88;9.63;;;;;;;;;;5067140;28;20541;-78
2023/06/22 02:53:56;;;;;;;17.48;8.65;;;;;;;;;;5068448;28;20067;-76
2023/06/22 02:56:24;;;;;;;18.20;9.00;;;;;;;;;;5067214;28;20029;-76
2023/06/22 02:58:50;;;;;;;18.00;9.10;;;;;;;;;;5061237;28;20116;-77
2023/06/22 03:01:15;;;;;;;16.02;8.95;;;;;;;;;;5070627;28;20584;-77
2023/06/22 03:03:40;;;;;;;18.17;9.20;;;;;;;;;;5064625;28;20036;-77
2023/06/22 03:06:06;;;;;;;22.63;9.73;;;;;;;;;;5063149;28;20383;-77
2023/06/22 03:08:31;;;;;;;14.90;9.55;;;;;;;;;;5065127;28;20382;-77
2023/06/22 03:10:57;;;;;;;19.58;10.82;;;;;;;;;;5051539;28;20090;-77
2023/06/22 03:13:23;;;;;;;18.05;10.15;;;;;;;;;;5051533;28;20068;-77
2023/06/22 03:15:48;;;;;;;21.65;10.73;;;;;;;;;;5064584;28;20043;-77
2023/06/22 03:18:15;;;;;;;18.73;9.93;;;;;;;;;;5061457;28;20476;-77
2023/06/22 03:20:40;;;;;;;21.48;11.20;;;;;;;;;;5055565;28;20085;-78
2023/06/22 03:23:06;;;;;;;22.67;11.70;;;;;;;;;;5058506;28;20148;-77
2023/06/22 03:25:31;;;;;;;29.02;12.30;;;;;;;;;;5055675;28;20052;-78
2023/06/22 03:27:56;;;;;;;22.63;11.38;;;;;;;;;;5064971;28;20091;-77
2023/06/22 03:30:22;;;;;;;21.80;10.75;;;;;;;;;;5069707;28;20036;-77
2023/06/22 03:32:47;;;;;;;24.58;10.85;;;;;;;;;;5047242;28;20047;-78
2023/06/22 03:35:13;;;;;;;25.38;11.50;;;;;;;;;;5058427;28;20040;-78
2023/06/22 03:37:39;;;;;;;19.83;10.88;;;;;;;;;;5061985;28;20043;-77
2023/06/22 03:40:05;;;;;;;29.45;11.13;;;;;;;;;;5051925;28;20112;-78
2023/06/22 03:42:31;;;;;;;18.42;10.18;;;;;;;;;;5064403;28;20051;-78
2023/06/22 03:44:56;;;;;;;20.33;10.50;;;;;;;;;;5060929;28;20506;-78
2023/06/22 03:47:22;;;;;;;24.45;10.05;;;;;;;;;;5063561;28;20063;-77
2023/06/22 03:49:47;;;;;;;21.63;10.20;;;;;;;;;;5063311;28;20040;-77
2023/06/22 03:52:13;;;;;;;17.60;9.77;;;;;;;;;;5067102;28;20025;-77
2023/06/22 03:54:38;;;;;;;19.17;10.15;;;;;;;;;;5059641;28;20033;-78
2023/06/22 03:57:04;;;;;;;21.65;10.25;;;;;;;;;;5048625;28;20035;-77
2023/06/22 03:59:29;;;;;;;14.95;8.63;;;;;;;;;;5064543;28;20029;-77
2023/06/22 04:01:54;;;;;;;25.55;10.23;;;;;;;;;;5056070;28;20033;-78
2023/06/22 04:04:20;;;;;;;22.02;10.63;;;;;;;;;;5059785;28;20591;-76
2023/06/22 04:06:45;;;;;;;25.05;9.50;;;;;;;;;;5058933;28;20044;-77
2023/06/22 04:09:10;;;;;;;13.52;9.32;;;;;;;;;;5050108;28;20067;-77
2023/06/22 04:11:36;;;;;;;22.30;9.85;;;;;;;;;;5057326;28;20029;-78
2023/06/22 04:14:01;;;;;;;20.52;9.65;;;;;;;;;;5066685;28;20098;-78
2023/06/22 04:16:26;;;;;;;14.23;8.95;;;;;;;;;;5059962;28;20035;-77
2023/06/22 04:18:52;;;;;;;21.77;8.75;;;;;;;;;;5063834;28;20067;-76
2023/06/22 04:21:19;;;;;;;15.00;8.60;;;;;;;;;;5059473;28;20116;-77
2023/06/22 04:23:45;;;;;;;29.52;9.82;;;;;;;;;;5055293;28;20387;-77
2023/06/22 04:26:11;;;;;;;25.75;9.27;;;;;;;;;;5061140;28;20067;-76
2023/06/22 04:28:36;;;;;;;12.98;8.80;;;;;;;;;;5056834;28;20060;-77
2023/06/22 04:31:02;;;;;;;30.25;9.45;;;;;;;;;;5055187;28;20033;-77
2023/06/22 04:33:31;;;;;;;39.13;9.73;;;;;;;;;;5058740;28;20036;-77
2023/06/22 04:35:57;;;;;;;29.80;10.00;;;;;;;;;;5061253;28;20120;-77
2023/06/22 04:38:23;;;;;;;25.58;8.68;;;;;;;;;;5061787;28;20053;-76
2023/06/22 04:40:49;;;;;;;20.98;9.88;;;;;;;;;;5061071;28;20033;-77
2023/06/22 04:43:14;;;;;;;19.42;8.93;;;;;;;;;;5053122;28;20049;-76
2023/06/22 04:45:40;;;;;;;35.85;8.88;;;;;;;;;;5061661;28;20406;-77
2023/06/22 04:48:05;;;;;;;25.63;8.48;;;;;;;;;;5068799;28;20028;-76
2023/06/22 04:50:31;;;;;;;25.80;8.45;;;;;;;;;;5063155;28;20025;-76
2023/06/22 04:52:56;;;;;;;33.47;8.38;;;;;;;;;;5068671;28;20032;-76
2023/06/22 04:55:21;;;;;;;27.92;8.27;;;;;;;;;;5053686;28;20033;-77
2023/06/22 04:57:48;;;;;;;18.35;7.72;;;;;;;;;;5066344;28;20045;-77
2023/06/22 05:00:17;;;;;;;12.93;7.75;;;;;;;;;;5016608;28;1363251;-78
2023/06/22 05:02:43;;;;;;;18.25;7.35;;;;;;;;;;5061102;28;20043;-78
2023/06/22 05:05:13;;;;;;;27.40;7.93;;;;;;;;;;5060577;28;20037;-78
2023/06/22 05:07:42;;;;;;;15.20;7.72;;;;;;;;;;5066503;28;20036;-78
2023/06/22 05:10:08;;;;;;;16.98;7.28;;;;;;;;;;5055513;28;20037;-78
2023/06/22 05:12:34;;;;;;;13.85;7.05;;;;;;;;;;5062584;28;20411;-78
2023/06/22 05:15:01;;;;;;;16.40;7.65;;;;;;;;;;5061382;28;20017;-78
2023/06/22 05:17:26;;;;;;;15.88;7.85;;;;;;;;;;5056356;28;20096;-78
2023/06/22 05:19:52;;;;;;;19.50;6.30;;;;;;;;;;5059023;28;20033;-79
2023/06/22 05:22:17;;;;;;;15.68;6.72;;;;;;;;;;5061031;28;20379;-79
2023/06/22 05:24:43;;;;;;;19.13;7.30;;;;;;;;;;5063270;28;20037;-79
2023/06/22 05:27:09;;;;;;;15.40;6.53;;;;;;;;;;5059268;28;20059;-78
2023/06/22 05:29:37;;;;;;;16.58;6.88;;;;;;;;;;5056136;28;20387;-77
2023/06/22 05:32:02;;;;;;;24.13;6.53;;;;;;;;;;5053008;28;20542;-77
2023/06/22 05:34:28;;;;;;;16.83;6.60;;;;;;;;;;5061207;28;20021;-77
2023/06/22 05:36:53;;;;;;;21.67;7.25;;;;;;;;;;5059742;28;20803;-80
2023/06/22 05:39:18;;;;;;;15.95;6.38;;;;;;;;;;5064360;28;20032;-77
2023/06/22 05:41:45;;;;;;;16.88;6.78;;;;;;;;;;5068460;28;20036;-78
2023/06/22 05:44:10;;;;;;;23.70;6.63;;;;;;;;;;5056453;28;20402;-77
2023/06/22 05:46:35;;;;;;;19.52;7.28;;;;;;;;;;5067770;28;20029;-79
2023/06/22 05:49:01;;;;;;;12.95;6.20;;;;;;;;;;5064325;28;20124;-79
2023/06/22 05:51:26;;;;;;;13.80;6.38;;;;;;;;;;5060580;28;20037;-79
2023/06/22 05:53:51;;;;;;;17.77;6.55;;;;;;;;;;5062792;28;20379;-79
2023/06/22 05:56:17;;;;;;;17.00;6.78;;;;;;;;;;5062328;28;20032;-78
2023/06/22 05:58:42;;;;;;;15.27;6.43;;;;;;;;;;5059366;28;20033;-78
2023/06/22 06:01:07;;;;;;;15.27;6.72;;;;;;;;;;5061004;28;20069;-78
2023/06/22 06:03:33;;;;;;;13.70;6.85;;;;;;;;;;5063720;28;20122;-78
2023/06/22 06:05:58;;;;;;;19.08;7.32;;;;;;;;;;5076063;28;20028;-78
2023/06/22 06:08:24;;;;;;;13.73;6.50;;;;;;;;;;5062273;28;20119;-78
2023/06/22 06:10:49;;;;;;;13.48;6.88;;;;;;;;;;5063833;28;20095;-78
2023/06/22 06:13:14;;;;;;;15.40;6.97;;;;;;;;;;5068856;28;20029;-78
2023/06/22 06:15:39;;;;;;;16.17;7.05;;;;;;;;;;5074206;28;20029;-78
2023/06/22 06:18:06;;;;;;;19.98;7.15;;;;;;;;;;5058591;28;20095;-78
2023/06/22 06:20:31;;;;;;;21.88;7.03;;;;;;;;;;5060261;28;20112;-78
2023/06/22 06:22:57;;;;;;;16.98;6.88;;;;;;;;;;5063212;28;20029;-79
2023/06/22 06:25:22;;;;;;;15.02;7.68;;;;;;;;;;5063235;28;20044;-79
2023/06/22 06:27:49;;;;;;;16.58;7.22;;;;;;;;;;5066476;28;20037;-79
2023/06/22 06:30:16;;;;;;;15.15;6.72;;;;;;;;;;5071669;28;20071;-79
2023/06/22 06:32:42;;;;;;;14.23;6.75;;;;;;;;;;5060458;28;20017;-79
2023/06/22 06:35:09;;;;;;;20.85;7.65;;;;;;;;;;5066952;28;20035;-79
2023/06/22 06:37:44;;;;;;;15.75;6.40;;;;;;;;;;5068286;28;20406;-79
2023/06/22 06:40:11;;;;;;;15.88;6.63;;;;;;;;;;5056122;28;20033;-79
2023/06/22 06:42:40;;;;;;;21.73;6.90;;;;;;;;;;5064500;28;20037;-79
2023/06/22 06:45:06;;;;;;;17.17;5.50;;;;;;;;;;5064047;28;20084;-79
2023/06/22 06:47:31;;;;;;;15.27;6.45;;;;;;;;;;5082072;28;20021;-80
2023/06/22 06:49:57;;;;;;;15.70;6.13;;;;;;;;;;5067937;28;20128;-80
2023/06/22 06:52:22;;;;;;;11.52;6.07;;;;;;;;;;5058706;28;20044;-80
2023/06/22 06:54:48;;;;;;;14.38;6.88;;;;;;;;;;5067030;28;20039;-79
2023/06/22 06:57:14;;;;;;;15.77;6.60;;;;;;;;;;5072363;28;20059;-79
2023/06/22 06:59:40;;;;;;;13.45;7.13;;;;;;;;;;5070705;28;20092;-79
2023/06/22 07:02:05;;;;;;;12.93;6.53;;;;;;;;;;5068556;28;20498;-79
2023/06/22 07:04:30;;;;;;;13.73;6.38;;;;;;;;;;5077053;28;20029;-79
2023/06/22 07:06:56;;;;;;;21.58;7.25;;;;;;;;;;5070353;28;20037;-79
2023/06/22 07:09:21;;;;;;;15.40;7.03;;;;;;;;;;5061421;28;20352;-79
2023/06/22 07:11:46;;;;;;;13.73;5.93;;;;;;;;;;5063005;28;20042;-79
2023/06/22 07:14:11;;;;;;;14.48;6.32;;;;;;;;;;5068714;28;20035;-79
2023/06/22 07:16:37;;;;;;;19.00;6.68;;;;;;;;;;5075276;28;20028;-79
2023/06/22 07:19:02;;;;;;;17.02;6.25;;;;;;;;;;5064782;28;20036;-79
2023/06/22 07:21:27;;;;;;;12.98;5.68;;;;;;;;;;5065737;28;20032;-79
2023/06/22 07:23:54;;;;;;;14.70;6.47;;;;;;;;;;5072241;28;20169;-79
2023/06/22 07:26:19;;;;;;;16.33;6.53;;;;;;;;;;5053556;28;20025;-79
2023/06/22 07:28:44;;;;;;;12.48;6.05;;;;;;;;;;5061047;28;20036;-79
2023/06/22 07:31:10;;;;;;;10.27;5.43;;;;;;;;;;5058109;28;20029;-79
2023/06/22 07:33:35;;;;;;;14.50;5.70;;;;;;;;;;5065759;28;20372;-79
2023/06/22 07:36:01;;;;;;;18.08;5.80;;;;;;;;;;5057506;28;20102;-79
2023/06/22 07:38:26;;;;;;;16.00;6.28;;;;;;;;;;5059515;28;20029;-79
2023/06/22 07:40:53;;;;;;;13.82;5.57;;;;;;;;;;5055463;28;20107;-79
2023/06/22 07:43:18;;;;;;;14.07;5.95;;;;;;;;;;5058089;28;20032;-79
2023/06/22 07:45:52;;;;;;;13.70;5.22;;;;;;;;;;5065352;28;20574;-79
2023/06/22 07:48:19;;;;;;;18.25;6.15;;;;;;;;;;5059587;28;20038;-79
2023/06/22 07:50:45;;;;;;;12.02;5.57;;;;;;;;;;5065859;28;20032;-79
2023/06/22 07:53:10;;;;;;;18.50;6.18;;;;;;;;;;5068993;28;20032;-79
2023/06/22 07:55:35;;;;;;;14.40;6.32;;;;;;;;;;5069350;28;20059;-79
2023/06/22 07:58:00;;;;;;;29.27;6.82;;;;;;;;;;5069369;28;20071;-79
2023/06/22 08:00:26;;;;;;;12.35;5.88;;;;;;;;;;5083956;22;20109;-80
2023/06/22 08:02:51;;;;;;;17.75;6.18;;;;;;;;;;5044432;28;20471;-80
2023/06/22 08:05:17;;;;;;;12.98;5.60;;;;;;;;;;5063996;28;20037;-82
2023/06/22 08:07:44;;;;;;;17.35;6.25;;;;;;;;;;5063729;28;20025;-82
2023/06/22 08:10:13;;;;;;;18.30;5.72;;;;;;;;;;5062814;28;20044;-82
2023/06/22 08:12:39;;;;;;;14.95;6.30;;;;;;;;;;5063616;28;20029;-81
2023/06/22 08:15:06;;;;;;;11.85;5.45;;;;;;;;;;5064017;28;20017;-81
2023/06/22 08:17:31;;;;;;;13.35;5.75;;;;;;;;;;5063799;28;20306;-81
2023/06/22 08:19:56;;;;;;;13.95;5.45;;;;;;;;;;5062431;28;20036;-81
2023/06/22 08:22:22;;;;;;;11.88;5.20;;;;;;;;;;5063450;28;20098;-80
2023/06/22 08:24:47;;;;;;;12.80;5.82;;;;;;;;;;5062506;28;20128;-79
2023/06/22 08:27:13;;;;;;;15.10;6.45;;;;;;;;;;5051803;28;20017;-81
2023/06/22 08:29:39;;;;;;;16.02;5.72;;;;;;;;;;5053672;28;20032;-80
2023/06/22 08:32:05;;;;;;;13.27;6.20;;;;;;;;;;5050811;28;20036;-83
2023/06/22 08:34:30;;;;;;;16.77;5.65;;;;;;;;;;5054391;28;20057;-83
2023/06/22 08:36:56;;;;;;;22.02;5.70;;;;;;;;;;5033086;28;20064;-82
2023/06/22 08:39:21;;;;;;;17.83;5.88;;;;;;;;;;5056528;28;20017;-82
2023/06/22 08:41:47;;;;;;;17.77;6.18;;;;;;;;;;5050593;28;20028;-83
2023/06/22 08:44:13;;;;;;;15.63;5.80;;;;;;;;;;5058151;28;20045;-82
2023/06/22 08:46:40;;;;;;;13.23;5.25;;;;;;;;;;5049867;28;20038;-83
2023/06/22 08:49:06;;;;;;;14.70;5.45;;;;;;;;;;5056571;28;20519;-82
2023/06/22 08:51:32;;;;;;;20.50;6.43;;;;;;;;;;5040386;28;20116;-83
2023/06/22 08:53:57;;;;;;;13.40;5.80;;;;;;;;;;5050546;28;20502;-83
2023/06/22 08:56:22;;;;;;;23.27;5.80;;;;;;;;;;5038129;28;20037;-84
2023/06/22 08:58:48;;;;;;;18.38;6.05;;;;;;;;;;5047913;28;20063;-82
2023/06/22 09:01:15;;;;;;;24.98;5.97;;;;;;;;;;5024829;28;20041;-82
2023/06/22 09:03:40;;;;;;;17.98;5.93;;;;;;;;;;5050539;28;20025;-82
2023/06/22 09:06:06;;;;;;;21.33;5.75;;;;;;;;;;5050196;28;20025;-82
2023/06/22 09:08:32;;;;;;;17.77;6.18;;;;;;;;;;5031338;28;20107;-83
2023/06/22 09:10:57;;;;;;;16.80;6.30;;;;;;;;;;5032608;28;20040;-84
2023/06/22 09:13:22;;;;;;;18.88;5.60;;;;;;;;;;5033291;28;20034;-83
2023/06/22 09:15:48;;;;;;;14.10;6.53;;;;;;;;;;5051154;28;20041;-83
2023/06/22 09:18:13;;;;;;;20.88;6.20;;;;;;;;;;5038660;28;20018;-83
2023/06/22 09:20:39;;;;;;;17.42;6.25;;;;;;;;;;5047561;28;20425;-81
2023/06/22 09:23:04;;;;;;;22.48;5.85;;;;;;;;;;5030131;28;20041;-83
2023/06/22 09:25:29;;;;;;;17.38;5.80;;;;;;;;;;5039564;28;20088;-83
2023/06/22 09:27:55;;;;;;;20.95;6.50;;;;;;;;;;5040095;28;20033;-83
2023/06/22 09:30:20;;;;;;;16.23;5.70;;;;;;;;;;5041597;28;20018;-80
2023/06/22 09:32:45;;;;;;;19.20;6.60;;;;;;;;;;5059736;28;20029;-82
2023/06/22 09:35:13;;;;;;;20.08;5.35;;;;;;;;;;5044567;28;20021;-81
2023/06/22 09:37:38;;;;;;;17.58;6.18;;;;;;;;;;5048356;28;20175;-82
2023/06/22 09:40:08;;;;;;;15.45;5.78;;;;;;;;;;5044878;28;20033;-81
2023/06/22 09:42:34;;;;;;;12.55;5.95;;;;;;;;;;5048812;28;20064;-81
2023/06/22 09:45:02;;;;;;;24.90;6.72;;;;;;;;;;5054936;28;20056;-82
2023/06/22 09:47:28;;;;;;;27.85;6.13;;;;;;;;;;5042117;28;20049;-81
2023/06/22 09:49:59;;;;;;;23.50;6.47;;;;;;;;;;5042766;28;20036;-83
2023/06/22 09:52:25;;;;;;;14.98;6.88;;;;;;;;;;5030556;28;20035;-80
2023/06/22 09:54:50;;;;;;;18.05;6.38;;;;;;;;;;5037477;28;20044;-83
2023/06/22 09:57:15;;;;;;;19.92;6.03;;;;;;;;;;5033776;28;20021;-81
2023/06/22 09:59:44;;;;;;;21.23;6.35;;;;;;;;;;5037488;28;20057;-83
2023/06/22 10:02:09;;;;;;;22.23;6.00;;;;;;;;;;5035729;28;20470;-84
2023/06/22 10:04:35;;;;;;;25.15;6.65;;;;;;;;;;5041652;28;20075;-83
2023/06/22 10:07:01;;;;;;;19.10;6.45;;;;;;;;;;5050159;28;20043;-83
2023/06/22 10:09:26;;;;;;;22.95;6.18;;;;;;;;;;5055539;28;20044;-83
2023/06/22 10:11:52;;;;;;;18.02;6.55;;;;;;;;;;5062233;28;20029;-83
2023/06/22 10:14:17;;;;;;;16.80;5.75;;;;;;;;;;5025278;28;20040;-82
2023/06/22 10:16:42;;;;;;;19.65;6.07;;;;;;;;;;5053974;28;20033;-83
2023/06/22 10:19:08;;;;;;;17.48;5.82;;;;;;;;;;5043616;28;20037;-83
2023/06/22 10:21:34;;;;;;;17.23;5.88;;;;;;;;;;5039689;28;20029;-82
2023/06/22 10:24:05;;;;;;;18.85;9.15;;;;;;;;;;5042486;28;20021;-83
2023/06/22 10:26:31;;;;;;;19.17;6.07;;;;;;;;;;5040788;28;20038;-83
2023/06/22 10:28:56;;;;;;;20.73;6.25;;;;;;;;;;5051475;28;20038;-82
2023/06/22 10:31:22;;;;;;;24.02;6.32;;;;;;;;;;5047776;28;20034;-81
2023/06/22 10:33:49;;;;;;;12.98;5.57;;;;;;;;;;5028986;28;20041;-84
2023/06/22 10:36:14;;;;;;;15.40;5.88;;;;;;;;;;5043091;28;20040;-82
2023/06/22 10:38:40;;;;;;;18.75;6.03;;;;;;;;;;5034861;28;20021;-82
2023/06/22 10:41:05;;;;;;;19.00;6.30;;;;;;;;;;5060800;28;20032;-83
2023/06/22 10:43:31;;;;;;;25.88;6.32;;;;;;;;;;5041926;28;20036;-83
2023/06/22 10:45:56;;;;;;;14.95;6.00;;;;;;;;;;5036479;28;20468;-81
2023/06/22 10:48:21;;;;;;;18.27;6.13;;;;;;;;;;5046920;28;21292;-83
2023/06/22 10:50:47;;;;;;;21.27;6.00;;;;;;;;;;5047506;28;20057;-80
2023/06/22 10:53:12;;;;;;;20.73;5.97;;;;;;;;;;5040768;28;20025;-80
2023/06/22 10:55:37;;;;;;;20.13;5.88;;;;;;;;;;5023854;28;20033;-79
2023/06/22 10:58:03;;;;;;;23.65;6.53;;;;;;;;;;5041435;28;20085;-79
2023/06/22 11:00:28;;;;;;;21.20;6.45;;;;;;;;;;5041153;28;20037;-83
2023/06/22 11:02:54;;;;;;;23.60;6.65;;;;;;;;;;5040645;28;20018;-81
2023/06/22 11:05:19;;;;;;;20.92;6.28;;;;;;;;;;5040025;28;20039;-82
2023/06/22 11:07:44;;;;;;;19.93;6.33;;;;;;;;;;5040727;28;20029;-82
2023/06/22 11:10:10;;;;;;;21.02;5.82;;;;;;;;;;5022747;28;20827;-81
2023/06/22 11:12:36;;;;;;;17.45;5.47;;;;;;;;;;5040460;28;20029;-81
2023/06/22 11:15:01;;;;;;;28.50;5.78;;;;;;;;;;5049559;28;20040;-81
2023/06/22 11:17:26;;;;;;;14.95;5.55;;;;;;;;;;5059142;28;20506;-81
2023/06/22 11:19:52;;;;;;;15.15;6.00;;;;;;;;;;5059430;28;20036;-83
2023/06/22 11:22:17;;;;;;;24.73;5.30;;;;;;;;;;5037701;28;20030;-84
2023/06/22 11:24:42;;;;;;;25.23;6.75;;;;;;;;;;5037154;28;20041;-83
2023/06/22 11:27:08;;;;;;;116.10;10.18;;;;;;;;;;5044208;28;20026;-84
2023/06/22 11:29:33;;;;;;;34.35;7.00;;;;;;;;;;5036182;28;20017;-83
2023/06/22 11:31:58;;;;;;;30.90;6.97;;;;;;;;;;5031529;28;20066;-84
2023/06/22 11:34:24;;;;;;;25.63;7.15;;;;;;;;;;5042874;28;20025;-82
2023/06/22 11:36:50;;;;;;;19.95;5.82;;;;;;;;;;5033453;28;20042;-81
2023/06/22 11:39:15;;;;;;;21.38;5.97;;;;;;;;;;5026408;28;20129;-84
2023/06/22 11:41:41;;;;;;;29.40;6.25;;;;;;;;;;5046056;28;20449;-83
2023/06/22 11:44:07;;;;;;;15.10;6.00;;;;;;;;;;5057760;28;20037;-84
2023/06/22 11:46:33;;;;;;;18.73;5.88;;;;;;;;;;5046637;28;20060;-83
2023/06/22 11:48:58;;;;;;;37.05;7.80;;;;;;;;;;5035976;28;20053;-85
2023/06/22 11:51:23;;;;;;;51.83;7.82;;;;;;;;;;5050915;28;20035;-84
2023/06/22 11:53:49;;;;;;;47.72;6.63;;;;;;;;;;5051305;28;20043;-84
2023/06/22 11:56:14;;;;;;;23.80;6.85;;;;;;;;;;5055975;28;20402;-83
2023/06/22 11:58:39;;;;;;;15.00;5.73;;;;;;;;;;5051963;28;20025;-85
2023/06/22 12:01:04;;;;;;;18.57;6.23;;;;;;;;;;5056644;28;20274;-84
2023/06/22 12:03:30;;;;;;;17.70;6.00;;;;;;;;;;5056920;28;20376;-84
2023/06/22 12:05:55;;;;;;;20.27;6.97;;;;;;;;;;5041375;28;20033;-85
2023/06/22 12:08:21;;;;;;;21.10;6.32;;;;;;;;;;5045625;28;20399;-84
2023/06/22 12:10:47;;;;;;;15.77;5.75;;;;;;;;;;5022842;28;20034;-84
2023/06/22 12:13:13;;;;;;;19.98;5.93;;;;;;;;;;5030132;28;20030;-86
2023/06/22 12:15:38;;;;;;;15.95;5.70;;;;;;;;;;5043651;28;20029;-84
2023/06/22 12:18:03;;;;;;;26.92;6.40;;;;;;;;;;5039053;28;20078;-84
2023/06/22 12:20:29;;;;;;;22.15;6.45;;;;;;;;;;5020846;28;20080;-83
2023/06/22 12:22:56;;;;;;;25.80;7.55;;;;;;;;;;5022942;28;20038;-84
2023/06/22 12:25:22;;;;;;;22.35;5.95;;;;;;;;;;5033289;28;20410;-84
2023/06/22 12:27:47;;;;;;;19.77;6.05;;;;;;;;;;5043531;28;20048;-85
2023/06/22 12:30:12;;;;;;;14.57;6.05;;;;;;;;;;5036002;28;20025;-83
2023/06/22 12:32:38;;;;;;;13.45;5.43;;;;;;;;;;5045285;28;20080;-84
2023/06/22 12:35:04;;;;;;;21.60;5.65;;;;;;;;;;5050045;28;20609;-84
2023/06/22 12:37:31;;;;;;;22.05;6.57;;;;;;;;;;5036116;28;20026;-83
2023/06/22 12:39:56;;;;;;;18.27;5.55;;;;;;;;;;5047619;28;20029;-84
2023/06/22 12:42:22;;;;;;;15.85;6.05;;;;;;;;;;5051955;28;20048;-84
2023/06/22 12:44:47;;;;;;;16.52;5.78;;;;;;;;;;5053805;28;20030;-83
2023/06/22 12:47:13;;;;;;;20.65;6.13;;;;;;;;;;5050479;28;20097;-84
2023/06/22 12:49:38;;;;;;;18.55;6.43;;;;;;;;;;5031879;28;20029;-83
2023/06/22 12:52:09;;;;;;;27.20;6.75;;;;;;;;;;5039915;28;20056;-83
2023/06/22 12:54:37;;;;;;;22.50;6.07;;;;;;;;;;5037455;28;20029;-81
2023/06/22 12:57:02;;;;;;;15.65;6.18;;;;;;;;;;5050076;28;20115;-82
2023/06/22 12:59:27;;;;;;;18.10;6.25;;;;;;;;;;5037026;28;20463;-82
2023/06/22 13:01:53;;;;;;;22.60;6.32;;;;;;;;;;5036192;28;20569;-83
2023/06/22 13:04:18;;;;;;;33.08;6.00;;;;;;;;;;5048736;28;20033;-82
2023/06/22 13:06:47;;;;;;;16.98;5.90;;;;;;;;;;5022363;28;20436;-83
2023/06/22 13:09:14;;;;;;;25.20;6.10;;;;;;;;;;5040055;28;20022;-82
2023/06/22 13:11:39;;;;;;;26.02;6.65;;;;;;;;;;5053784;28;20051;-82
2023/06/22 13:14:04;;;;;;;22.67;5.97;;;;;;;;;;5063700;28;20075;-79
2023/06/22 13:16:30;;;;;;;15.60;5.97;;;;;;;;;;5062542;28;20056;-81
2023/06/22 13:18:55;;;;;;;11.80;4.97;;;;;;;;;;5043581;28;20037;-80
2023/06/22 13:21:20;;;;;;;24.97;5.77;;;;;;;;;;5062389;28;20537;-81
2023/06/22 13:23:45;;;;;;;25.35;5.65;;;;;;;;;;5063786;28;20294;-81
2023/06/22 13:26:14;;;;;;;17.37;5.60;;;;;;;;;;5062346;28;20033;-85
2023/06/22 13:28:39;;;;;;;26.20;5.75;;;;;;;;;;5049753;28;20747;-83
2023/06/22 13:31:05;;;;;;;21.95;5.82;;;;;;;;;;5032562;28;20030;-83
2023/06/22 13:33:30;;;;;;;18.60;5.40;;;;;;;;;;5026494;28;20055;-83
2023/06/22 13:35:56;;;;;;;25.80;6.07;;;;;;;;;;5053108;28;20506;-84
2023/06/22 13:38:22;;;;;;;23.13;5.70;;;;;;;;;;5049736;28;20044;-84
2023/06/22 13:40:49;;;;;;;15.82;5.80;;;;;;;;;;5046106;28;20045;-83
2023/06/22 13:43:15;;;;;;;14.90;6.18;;;;;;;;;;5060139;28;20029;-84
2023/06/22 13:45:41;;;;;;;17.75;5.65;;;;;;;;;;5055018;28;20119;-84
2023/06/22 13:48:07;;;;;;;19.50;5.38;;;;;;;;;;5049849;28;20079;-84
2023/06/22 13:50:33;;;;;;;26.35;5.70;;;;;;;;;;5043963;28;20151;-84
2023/06/22 13:52:58;;;;;;;19.88;6.10;;;;;;;;;;5059848;28;20060;-84
2023/06/22 13:55:23;;;;;;;17.98;5.47;;;;;;;;;;5036923;28;20495;-84
2023/06/22 13:57:49;;;;;;;17.33;6.10;;;;;;;;;;5048777;28;20040;-81
2023/06/22 14:00:15;;;;;;;23.83;5.80;;;;;;;;;;5067266;22;20049;-75
2023/06/22 14:02:41;;;;;;;28.10;6.68;;;;;;;;;;5049761;28;20506;-75
2023/06/22 14:05:07;;;;;;;24.35;5.93;;;;;;;;;;5050732;28;20036;-76
2023/06/22 14:07:32;;;;;;;24.88;5.85;;;;;;;;;;5051689;28;20033;-76
2023/06/22 14:09:58;;;;;;;19.48;5.75;;;;;;;;;;5043231;28;20037;-76
2023/06/22 14:12:23;;;;;;;13.73;5.50;;;;;;;;;;5042825;28;20025;-76
2023/06/22 14:14:49;;;;;;;22.75;5.47;;;;;;;;;;5051901;28;20017;-76
2023/06/22 14:17:14;;;;;;;22.77;5.00;;;;;;;;;;5051258;28;20065;-75
2023/06/22 14:19:39;;;;;;;21.52;5.25;;;;;;;;;;5043138;28;20094;-75
2023/06/22 14:22:05;;;;;;;23.90;5.60;;;;;;;;;;5043283;28;20040;-76